Time;durP1;ratioP1;P1;durP2;ratioP2;P2;SDS_P1;SDS_P2;PMS_P1;PMS_P2;Temp;Humidity;BMP_temperature;BMP_pressure;BME280_temperature;BME280_humidity;BME280_pressure;Samples;Min_cycle;Max_cycle;Signal;HPM_P1;HPM_P2
2024/01/14 00:01:44;;;;;;;19.15;5.65;;;;;;;3.54;100.00;100689.03;6302916;28;20045;-74
2024/01/14 00:04:45;;;;;;;10.32;5.20;;;;;;;3.53;100.00;100687.34;6302478;28;20049;-74
2024/01/14 00:07:47;;;;;;;25.38;6.28;;;;;;;3.54;100.00;100695.13;6302319;28;20063;-75
2024/01/14 00:10:48;;;;;;;16.30;6.18;;;;;;;3.53;100.00;100689.94;6302723;28;20052;-74
2024/01/14 00:13:51;;;;;;;11.88;5.78;;;;;;;3.54;100.00;100689.91;6301989;28;20052;-74
2024/01/14 00:16:52;;;;;;;13.77;5.22;;;;;;;3.49;100.00;100686.56;6301781;28;20052;-75
2024/01/14 00:19:53;;;;;;;16.65;6.22;;;;;;;3.58;100.00;100679.44;6302452;28;20353;-74
2024/01/14 00:22:55;;;;;;;21.23;6.38;;;;;;;3.54;100.00;100674.34;6301897;28;20056;-74
2024/01/14 00:25:56;;;;;;;20.25;6.63;;;;;;;3.53;100.00;100685.59;6301229;28;20322;-74
2024/01/14 00:28:59;;;;;;;13.95;5.75;;;;;;;3.52;100.00;100683.03;6301791;28;20051;-74
2024/01/14 00:32:02;;;;;;;16.23;5.65;;;;;;;3.54;100.00;100689.03;6301757;28;20051;-73
2024/01/14 00:35:04;;;;;;;15.93;5.47;;;;;;;3.61;100.00;100692.34;6300727;28;20048;-73
2024/01/14 00:38:05;;;;;;;12.07;5.45;;;;;;;3.68;100.00;100693.88;6300389;28;20052;-73
2024/01/14 00:41:07;;;;;;;20.80;5.80;;;;;;;3.64;100.00;100689.69;6302050;28;20098;-73
2024/01/14 00:44:09;;;;;;;12.45;4.75;;;;;;;3.59;100.00;100682.00;6301750;28;20049;-74
2024/01/14 00:47:11;;;;;;;11.13;3.97;;;;;;;3.67;100.00;100680.03;6301032;28;20079;-72
2024/01/14 00:50:12;;;;;;;13.05;4.50;;;;;;;3.72;100.00;100669.53;6301950;28;20052;-72
2024/01/14 00:53:13;;;;;;;10.80;3.63;;;;;;;3.70;100.00;100672.16;6301205;28;20053;-73
2024/01/14 00:56:14;;;;;;;8.38;3.78;;;;;;;3.71;100.00;100662.63;6301098;28;20053;-72
2024/01/14 00:59:17;;;;;;;15.38;4.00;;;;;;;3.80;100.00;100663.22;6301516;28;20071;-73
2024/01/14 01:02:19;;;;;;;17.08;3.75;;;;;;;3.79;100.00;100664.13;6301361;28;20052;-73
2024/01/14 01:05:20;;;;;;;13.75;4.15;;;;;;;3.84;100.00;100648.41;6300710;28;20441;-72
2024/01/14 01:08:21;;;;;;;12.70;3.78;;;;;;;3.87;100.00;100652.69;6301208;28;20052;-73
2024/01/14 01:11:23;;;;;;;17.00;3.40;;;;;;;3.89;100.00;100640.50;6301190;28;20403;-73
2024/01/14 01:14:25;;;;;;;11.00;3.72;;;;;;;3.75;100.00;100646.91;6301344;28;20055;-74
2024/01/14 01:17:27;;;;;;;12.60;3.58;;;;;;;3.86;100.00;100628.44;6300704;28;20052;-73
2024/01/14 01:20:28;;;;;;;11.70;3.90;;;;;;;3.78;100.00;100631.25;6300932;28;20051;-74
2024/01/14 01:23:29;;;;;;;10.40;3.60;;;;;;;3.85;100.00;100626.72;6300969;28;20048;-73
2024/01/14 01:26:31;;;;;;;9.30;3.33;;;;;;;3.75;100.00;100631.31;6300450;28;20044;-74
2024/01/14 01:29:33;;;;;;;11.90;3.47;;;;;;;3.74;100.00;100620.97;6300996;28;20049;-73
2024/01/14 01:32:35;;;;;;;7.82;3.30;;;;;;;3.71;100.00;100621.03;6300689;28;20049;-73
2024/01/14 01:35:36;;;;;;;6.63;3.08;;;;;;;3.78;100.00;100620.84;6300419;28;20583;-73
2024/01/14 01:38:38;;;;;;;18.42;3.08;;;;;;;3.70;100.00;100620.19;6300496;28;20052;-73
2024/01/14 01:41:39;;;;;;;22.20;3.53;;;;;;;3.68;100.00;100616.81;6300191;28;20425;-73
2024/01/14 01:44:42;;;;;;;6.28;2.67;;;;;;;3.63;100.00;100626.44;6300285;28;20051;-73
2024/01/14 01:47:43;;;;;;;10.65;2.63;;;;;;;3.70;100.00;100612.41;6299795;28;20048;-73
2024/01/14 01:50:46;;;;;;;6.03;2.55;;;;;;;3.73;100.00;100616.69;6300647;28;20055;-73
2024/01/14 01:53:47;;;;;;;9.30;2.17;;;;;;;3.71;100.00;100603.69;6300001;28;20044;-73
2024/01/14 01:56:51;;;;;;;9.68;2.63;;;;;;;3.72;100.00;100610.59;6299770;28;20048;-73
2024/01/14 01:59:54;;;;;;;12.32;2.42;;;;;;;3.70;100.00;100609.81;6300188;28;20056;-72
2024/01/14 02:02:55;;;;;;;9.80;2.15;;;;;;;3.76;100.00;100613.97;6300060;28;20356;-74
2024/01/14 02:05:58;;;;;;;11.32;2.28;;;;;;;3.70;100.00;100622.78;6299515;28;20064;-73
2024/01/14 02:09:00;;;;;;;3.95;1.67;;;;;;;3.71;100.00;100618.44;6300348;28;20052;-74
2024/01/14 02:12:01;;;;;;;6.50;1.80;;;;;;;3.79;100.00;100608.69;6300157;28;20045;-73
2024/01/14 02:15:04;;;;;;;6.15;2.35;;;;;;;3.74;100.00;100600.19;6299826;28;20041;-73
2024/01/14 02:18:06;;;;;;;7.80;2.30;;;;;;;3.71;100.00;100615.84;6299452;28;20452;-73
2024/01/14 02:21:09;;;;;;;3.42;1.70;;;;;;;3.72;100.00;100618.41;6300013;28;20489;-73
2024/01/14 02:24:23;;;;;;;9.10;2.00;;;;;;;3.72;100.00;100600.19;6299885;28;20049;-74
2024/01/14 02:27:25;;;;;;;17.40;1.90;;;;;;;3.71;100.00;100601.09;6299614;28;20468;-74
2024/01/14 02:30:27;;;;;;;8.98;1.77;;;;;;;3.65;100.00;100611.69;6299950;28;20356;-73
2024/01/14 02:33:28;;;;;;;11.20;1.85;;;;;;;3.67;100.00;100598.63;6299035;28;20052;-73
2024/01/14 02:36:29;;;;;;;9.80;2.00;;;;;;;3.59;100.00;100601.47;6295116;28;20040;-73
2024/01/14 02:39:32;;;;;;;6.50;1.30;;;;;;;3.67;100.00;100593.44;6299600;28;20051;-73
2024/01/14 02:42:33;;;;;;;13.60;1.45;;;;;;;3.56;100.00;100599.78;6299470;28;20049;-73
2024/01/14 02:45:35;;;;;;;8.38;1.58;;;;;;;3.58;100.00;100589.34;6299238;28;20052;-74
2024/01/14 02:48:37;;;;;;;4.32;1.23;;;;;;;3.67;100.00;100606.44;6299895;28;20083;-73
2024/01/14 02:51:38;;;;;;;3.35;1.55;;;;;;;3.60;100.00;100591.91;6299736;28;20044;-73
2024/01/14 02:54:41;;;;;;;2.85;1.50;;;;;;;3.63;100.00;100594.41;6299252;28;20053;-73
2024/01/14 02:57:42;;;;;;;6.25;2.05;;;;;;;3.59;100.00;100597.97;6296155;28;20468;-73
2024/01/14 03:00:44;;;;;;;3.05;1.13;;;;;;;3.55;100.00;100595.50;6303756;28;20053;-73
2024/01/14 03:03:45;;;;;;;6.28;1.88;;;;;;;3.47;100.00;100587.03;6304000;28;20356;-73
2024/01/14 03:06:46;;;;;;;6.85;1.33;;;;;;;3.50;100.00;100589.56;6303674;28;20060;-73
2024/01/14 03:09:49;;;;;;;4.97;1.90;;;;;;;3.54;100.00;100591.19;6304076;28;20174;-73
2024/01/14 03:12:50;;;;;;;4.45;2.25;;;;;;;3.56;100.00;100586.78;6303630;28;20051;-73
2024/01/14 03:15:52;;;;;;;3.10;1.88;;;;;;;3.58;100.00;100591.94;6303482;28;20056;-74
2024/01/14 03:18:53;;;;;;;3.22;2.00;;;;;;;3.55;100.00;100590.28;6303976;28;20071;-73
2024/01/14 03:21:54;;;;;;;6.43;2.20;;;;;;;3.50;100.00;100580.94;6304089;28;20052;-73
2024/01/14 03:24:57;;;;;;;4.82;2.10;;;;;;;3.43;100.00;100577.63;6301704;28;20456;-74
2024/01/14 03:27:58;;;;;;;9.43;2.28;;;;;;;3.41;100.00;100576.81;6303238;28;20059;-74
2024/01/14 03:31:00;;;;;;;11.57;2.05;;;;;;;3.43;100.00;100575.03;6303939;28;20052;-73
2024/01/14 03:34:01;;;;;;;6.13;2.58;;;;;;;3.44;100.00;100568.94;6302956;28;20044;-73
2024/01/14 03:37:03;;;;;;;12.18;2.97;;;;;;;3.41;100.00;100571.63;6302885;28;20060;-72
2024/01/14 03:40:07;;;;;;;7.15;2.78;;;;;;;3.45;100.00;100570.66;6303390;28;20052;-72
2024/01/14 03:43:08;;;;;;;3.75;2.10;;;;;;;3.38;100.00;100561.31;6303120;28;20052;-72
2024/01/14 03:46:10;;;;;;;3.55;1.80;;;;;;;3.41;100.00;100571.63;6288935;28;20049;-72
2024/01/14 03:49:11;;;;;;;5.68;2.05;;;;;;;3.32;100.00;100577.06;6291390;28;20045;-71
2024/01/14 03:52:12;;;;;;;6.35;2.00;;;;;;;3.43;100.00;100576.78;6289052;28;20037;-72
2024/01/14 03:55:15;;;;;;;8.40;2.05;;;;;;;3.40;100.00;100577.69;6283039;28;20079;-71
2024/01/14 03:58:16;;;;;;;3.83;1.60;;;;;;;3.34;100.00;100570.06;6278472;28;20053;-71
2024/01/14 04:01:18;;;;;;;2.08;1.27;;;;;;;3.31;100.00;100575.34;6278669;28;20049;-72
2024/01/14 04:04:19;;;;;;;3.20;1.13;;;;;;;3.28;100.00;100575.44;6302713;28;20045;-72
2024/01/14 04:07:21;;;;;;;7.38;2.10;;;;;;;3.38;100.00;100576.03;6302187;28;20048;-71
2024/01/14 04:10:23;;;;;;;2.78;1.33;;;;;;;3.28;100.00;100580.63;6302644;28;20049;-71
2024/01/14 04:13:25;;;;;;;10.63;1.58;;;;;;;3.26;100.00;100580.66;6302667;28;20060;-72
2024/01/14 04:16:26;;;;;;;5.55;1.73;;;;;;;3.31;100.00;100577.94;6302118;28;20059;-72
2024/01/14 04:19:27;;;;;;;10.85;2.05;;;;;;;3.30;100.00;100577.09;6302744;28;20459;-72
2024/01/14 04:22:29;;;;;;;3.55;1.80;;;;;;;3.35;100.00;100576.97;6290227;28;20469;-71
2024/01/14 04:25:31;;;;;;;6.03;1.92;;;;;;;3.33;100.00;100572.72;6287237;28;20048;-71
2024/01/14 04:28:32;;;;;;;7.30;1.65;;;;;;;3.33;100.00;100570.13;6288286;28;20041;-71
2024/01/14 04:31:34;;;;;;;5.28;2.10;;;;;;;3.28;100.00;100568.50;6299297;28;20067;-72
2024/01/14 04:34:35;;;;;;;7.68;2.45;;;;;;;3.20;100.00;100567.00;6301360;28;20056;-72
2024/01/14 04:37:36;;;;;;;3.28;2.15;;;;;;;3.27;100.00;100569.41;6301321;28;20437;-72
2024/01/14 04:40:39;;;;;;;12.25;2.10;;;;;;;3.23;100.00;100553.94;6297449;28;20056;-71
2024/01/14 04:43:40;;;;;;;5.30;1.13;;;;;;;3.16;100.00;100550.63;6290082;28;20051;-71
2024/01/14 04:46:42;;;;;;;8.32;1.75;;;;;;;3.09;100.00;100548.22;6287951;28;20461;-71
2024/01/14 04:49:43;;;;;;;3.58;1.33;;;;;;;3.16;100.00;100554.97;6298221;28;20353;-71
2024/01/14 04:52:45;;;;;;;7.95;1.40;;;;;;;3.10;100.00;100550.81;6301734;28;20142;-71
2024/01/14 04:55:47;;;;;;;6.60;1.30;;;;;;;3.15;100.00;100548.09;6300989;28;20459;-71
2024/01/14 04:58:48;;;;;;;6.88;1.23;;;;;;;3.15;100.00;100545.50;6301850;28;20056;-71
2024/01/14 05:01:50;;;;;;;6.80;1.10;;;;;;;3.14;100.00;100547.25;6301454;28;20040;-71
2024/01/14 05:04:51;;;;;;;11.10;1.65;;;;;;;3.17;100.00;100544.53;6301455;28;20436;-71
2024/01/14 05:07:52;;;;;;;3.03;1.52;;;;;;;3.15;100.00;100542.91;6300574;28;20052;-71
2024/01/14 05:10:55;;;;;;;4.30;1.23;;;;;;;3.16;100.00;100544.59;6301589;28;20044;-71
2024/01/14 05:13:56;;;;;;;2.80;1.13;;;;;;;3.14;100.00;100538.59;6301051;28;20436;-72
2024/01/14 05:16:58;;;;;;;3.72;1.70;;;;;;;3.16;100.00;100532.47;6300419;28;20052;-71
2024/01/14 05:19:59;;;;;;;8.68;1.10;;;;;;;3.16;100.00;100537.66;6301246;28;20057;-71
2024/01/14 05:23:00;;;;;;;1.55;1.02;;;;;;;3.15;100.00;100535.94;6300086;28;20045;-72
2024/01/14 05:26:04;;;;;;;1.70;0.60;;;;;;;3.11;100.00;100528.28;6300664;28;20071;-71
2024/01/14 05:29:06;;;;;;;11.95;0.93;;;;;;;3.07;100.00;100542.22;6300943;28;20134;-72
2024/01/14 05:32:08;;;;;;;8.07;1.08;;;;;;;3.11;100.00;100526.53;6301075;28;20182;-71
2024/01/14 05:35:09;;;;;;;5.25;1.00;;;;;;;3.00;100.00;100518.19;6300575;28;20349;-71
2024/01/14 05:38:11;;;;;;;3.00;0.93;;;;;;;3.01;100.00;100523.34;6300293;28;20052;-71
2024/01/14 05:41:13;;;;;;;8.98;1.10;;;;;;;2.99;100.00;100516.47;6300626;28;20071;-72
2024/01/14 05:44:15;;;;;;;6.75;1.05;;;;;;;2.95;100.00;100513.13;6300668;28;20052;-72
2024/01/14 05:47:16;;;;;;;4.03;2.03;;;;;;;2.97;100.00;100505.28;6300151;28;20048;-72
2024/01/14 05:50:17;;;;;;;10.93;0.98;;;;;;;2.94;100.00;100505.34;6300420;28;20075;-72
2024/01/14 05:53:19;;;;;;;4.00;1.67;;;;;;;3.07;100.00;100508.47;6300368;28;20048;-71
2024/01/14 05:56:28;;;;;;;8.52;1.05;;;;;;;2.94;100.00;100503.59;6299763;28;20441;-71
2024/01/14 05:59:29;;;;;;;12.27;1.40;;;;;;;2.85;100.00;100490.03;6300344;28;20456;-72
2024/01/14 06:02:31;;;;;;;6.55;1.10;;;;;;;2.88;100.00;100497.75;6300027;28;20055;-71
2024/01/14 06:05:32;;;;;;;5.18;2.10;;;;;;;2.93;100.00;100508.84;6299957;28;20453;-72
2024/01/14 06:08:33;;;;;;;7.82;1.33;;;;;;;2.91;100.00;100506.31;6299725;28;20048;-72
2024/01/14 06:11:36;;;;;;;6.30;1.33;;;;;;;2.97;100.00;100500.94;6300312;28;20352;-72
2024/01/14 06:14:37;;;;;;;2.70;0.95;;;;;;;2.97;100.00;100505.28;6299978;28;20049;-72
2024/01/14 06:17:38;;;;;;;11.88;1.75;;;;;;;3.04;100.00;100510.28;6299595;28;20349;-72
2024/01/14 06:20:40;;;;;;;3.63;1.15;;;;;;;3.07;100.00;100506.75;6300156;28;20052;-72
2024/01/14 06:23:41;;;;;;;8.73;1.02;;;;;;;3.08;100.00;100505.00;6299648;28;20048;-71
2024/01/14 06:26:44;;;;;;;13.75;1.48;;;;;;;3.01;100.00;100515.53;6299708;28;20052;-72
2024/01/14 06:29:46;;;;;;;10.13;1.33;;;;;;;3.02;100.00;100498.22;6300112;28;20048;-72
2024/01/14 06:32:47;;;;;;;6.32;1.27;;;;;;;2.97;100.00;100492.31;6300791;28;20075;-71
2024/01/14 06:35:48;;;;;;;4.30;1.10;;;;;;;2.95;100.00;100491.47;6303557;28;20059;-71
2024/01/14 06:38:50;;;;;;;6.50;1.35;;;;;;;2.91;100.00;100495.06;6304851;28;20052;-72
2024/01/14 06:41:53;;;;;;;4.13;1.15;;;;;;;2.90;100.00;100485.56;6304359;28;20048;-71
2024/01/14 06:44:54;;;;;;;6.70;1.13;;;;;;;2.87;100.00;100489.09;6304458;28;20482;-72
2024/01/14 06:47:56;;;;;;;5.60;1.13;;;;;;;2.87;100.00;100493.44;6304169;28;20060;-71
2024/01/14 06:50:57;;;;;;;6.40;1.25;;;;;;;2.95;100.00;100489.75;6304626;28;20380;-71
2024/01/14 06:53:58;;;;;;;6.28;0.93;;;;;;;2.92;100.00;100483.78;6304403;28;20044;-71
2024/01/14 06:57:01;;;;;;;13.98;1.80;;;;;;;2.85;100.00;100484.81;6304029;28;20558;-71
2024/01/14 07:00:07;;;;;;;3.20;1.20;;;;;;;2.87;100.00;100488.25;6304517;28;20053;-72
2024/01/14 07:03:09;;;;;;;9.32;2.03;;;;;;;2.93;100.00;100481.16;6279319;28;20045;-71
2024/01/14 07:06:10;;;;;;;12.98;1.75;;;;;;;3.05;100.00;100479.97;6278709;28;20429;-71
2024/01/14 07:09:12;;;;;;;17.90;2.78;;;;;;;2.95;100.00;100481.97;6290572;28;20053;-72
2024/01/14 07:12:15;;;;;;;6.72;1.95;;;;;;;3.00;100.00;100477.50;6303964;28;20102;-71
2024/01/14 07:15:16;;;;;;;5.00;2.22;;;;;;;3.00;100.00;100481.84;6303286;28;20428;-71
2024/01/14 07:18:18;;;;;;;3.80;1.38;;;;;;;3.02;100.00;100480.06;6304148;28;20050;-71
2024/01/14 07:21:22;;;;;;;10.10;1.63;;;;;;;2.82;100.00;100475.41;6303923;28;20094;-73
2024/01/14 07:24:23;;;;;;;6.50;1.70;;;;;;;2.86;100.00;100479.63;6303331;28;20044;-71
2024/01/14 07:27:26;;;;;;;3.55;1.20;;;;;;;2.79;100.00;100483.25;6303277;28;20056;-71
2024/01/14 07:30:27;;;;;;;15.55;6.07;;;;;;;2.85;100.00;100480.50;6304028;28;20048;-71
2024/01/14 07:33:28;;;;;;;4.30;1.35;;;;;;;2.74;100.00;100480.78;6303601;28;20041;-71
2024/01/14 07:36:30;;;;;;;5.05;0.90;;;;;;;2.76;100.00;100478.97;6302711;28;20186;-71
2024/01/14 07:39:31;;;;;;;10.32;1.52;;;;;;;2.88;100.00;100482.16;6296334;28;20053;-71
2024/01/14 07:42:34;;;;;;;5.88;1.42;;;;;;;2.91;100.00;100482.94;6293839;28;20058;-71
2024/01/14 07:45:36;;;;;;;4.07;1.88;;;;;;;2.90;100.00;100483.81;6301202;28;20064;-72
2024/01/14 07:48:37;;;;;;;7.00;1.80;;;;;;;2.88;100.00;100484.75;6292020;28;20433;-71
2024/01/14 07:51:39;;;;;;;6.70;1.40;;;;;;;3.00;100.00;100487.03;6298531;28;20044;-71
2024/01/14 07:54:40;;;;;;;12.43;1.77;;;;;;;3.06;100.00;100492.06;6302867;28;20048;-72
2024/01/14 07:57:43;;;;;;;6.90;1.88;;;;;;;2.93;100.00;100478.56;6302536;28;20060;-72
2024/01/14 08:00:44;;;;;;;13.35;1.75;;;;;;;2.93;100.00;100493.28;6303143;28;20052;-71
2024/01/14 08:03:46;;;;;;;7.97;1.65;;;;;;;3.01;100.00;100484.41;6302939;28;20052;-71
2024/01/14 08:06:47;;;;;;;9.68;1.80;;;;;;;3.00;100.00;100489.66;6300836;28;20090;-71
2024/01/14 08:09:49;;;;;;;14.20;2.20;;;;;;;2.98;100.00;100484.47;6289674;28;20393;-71
2024/01/14 08:12:51;;;;;;;5.63;1.27;;;;;;;2.99;100.00;100488.75;6297251;28;20045;-71
2024/01/14 08:15:53;;;;;;;9.88;1.38;;;;;;;3.05;100.00;100491.22;6302121;28;20052;-71
2024/01/14 08:18:55;;;;;;;11.40;0.95;;;;;;;3.04;100.00;100486.94;6302775;28;20433;-72
2024/01/14 08:21:56;;;;;;;8.00;0.98;;;;;;;3.03;100.00;100486.94;6301540;28;20060;-71
2024/01/14 08:24:57;;;;;;;12.30;1.65;;;;;;;2.98;100.00;100486.22;6302245;28;20053;-71
2024/01/14 08:28:00;;;;;;;5.13;1.20;;;;;;;3.05;100.00;100482.56;6301903;28;20053;-71
2024/01/14 08:31:01;;;;;;;4.10;0.95;;;;;;;2.88;100.00;100482.16;6299524;28;20040;-71
2024/01/14 08:34:04;;;;;;;5.30;1.52;;;;;;;2.96;100.00;100488.00;6284928;28;20049;-71
2024/01/14 08:37:05;;;;;;;8.20;1.27;;;;;;;2.91;100.00;100488.13;6289908;28;20049;-72
2024/01/14 08:40:08;;;;;;;3.90;1.70;;;;;;;2.89;100.00;100486.47;6290429;28;20445;-72
2024/01/14 08:43:11;;;;;;;4.63;1.75;;;;;;;3.00;100.00;100484.44;6301614;28;20040;-71
2024/01/14 08:46:13;;;;;;;8.98;1.73;;;;;;;2.96;100.00;100485.41;6301564;28;20060;-72
2024/01/14 08:49:14;;;;;;;13.30;1.60;;;;;;;2.98;100.00;100478.44;6300943;28;20126;-72
2024/01/14 08:52:16;;;;;;;5.35;1.70;;;;;;;2.99;100.00;100474.94;6300896;28;20063;-72
2024/01/14 08:55:20;;;;;;;8.80;1.98;;;;;;;2.93;100.00;100480.28;6300264;28;20055;-72
2024/01/14 08:58:23;;;;;;;5.20;2.47;;;;;;;3.11;100.00;100478.97;6293036;28;20045;-73
2024/01/14 09:01:25;;;;;;;7.70;2.38;;;;;;;3.10;100.00;100472.06;6289709;28;20055;-72
2024/01/14 09:04:26;;;;;;;4.40;2.20;;;;;;;3.13;100.00;100469.38;6296475;28;20096;-72
2024/01/14 09:07:28;;;;;;;12.95;2.47;;;;;;;3.14;100.00;100464.16;6300327;28;20048;-72
2024/01/14 09:10:29;;;;;;;7.40;2.53;;;;;;;3.14;100.00;100473.69;6301364;28;20041;-72
2024/01/14 09:13:32;;;;;;;12.07;2.38;;;;;;;3.24;100.00;100467.34;6299341;28;20047;-72
2024/01/14 09:16:33;;;;;;;8.32;2.38;;;;;;;3.22;100.00;100461.31;6298464;28;20044;-71
2024/01/14 09:19:34;;;;;;;23.60;3.08;;;;;;;3.22;100.00;100459.56;6291663;28;20193;-71
2024/01/14 09:22:36;;;;;;;4.65;2.05;;;;;;;3.30;100.00;100464.56;6281115;28;20056;-72
2024/01/14 09:25:37;;;;;;;6.50;1.88;;;;;;;3.27;100.00;100462.03;6284205;28;20068;-72
2024/01/14 09:28:40;;;;;;;6.22;2.80;;;;;;;3.26;100.00;100466.41;6291216;28;20052;-72
2024/01/14 09:31:41;;;;;;;13.80;2.38;;;;;;;3.40;100.00;100457.38;6299367;28;20056;-72
2024/01/14 09:34:42;;;;;;;10.05;2.90;;;;;;;3.43;100.00;100463.34;6298948;28;20045;-72
2024/01/14 09:37:43;;;;;;;20.58;2.70;;;;;;;3.53;100.00;100474.31;6299484;28;20048;-72
2024/01/14 09:40:47;;;;;;;14.80;2.35;;;;;;;3.51;100.00;100466.56;6298360;28;20055;-72
2024/01/14 09:43:52;;;;;;;8.07;2.67;;;;;;;3.58;100.00;100466.38;6291380;28;20044;-72
2024/01/14 09:46:54;;;;;;;12.05;2.30;;;;;;;3.73;100.00;100459.00;6296824;28;20055;-73
2024/01/14 09:49:58;;;;;;;10.15;2.65;;;;;;;3.65;100.00;100454.91;6293268;28;20358;-72
2024/01/14 09:53:01;;;;;;;9.35;2.47;;;;;;;3.78;100.00;100454.50;6299011;28;20433;-72
2024/01/14 09:56:07;;;;;;;9.20;2.58;;;;;;;3.77;100.00;100451.94;6298564;28;20257;-72
2024/01/14 09:59:12;;;;;;;11.88;2.35;;;;;;;3.90;100.00;100447.22;6290222;28;20053;-72
2024/01/14 10:02:13;;;;;;;6.78;1.80;;;;;;;3.89;100.00;100446.38;6294449;28;20048;-71
2024/01/14 10:05:15;;;;;;;8.68;3.50;;;;;;;3.86;100.00;100443.00;6285293;28;20091;-72
2024/01/14 10:08:16;;;;;;;8.85;3.00;;;;;;;3.92;100.00;100438.50;6290480;28;20044;-72
2024/01/14 10:11:18;;;;;;;11.23;2.80;;;;;;;3.80;100.00;100436.25;6297086;28;20433;-72
2024/01/14 10:14:25;;;;;;;8.35;3.47;;;;;;;3.70;100.00;100434.84;6290219;28;20049;-71
2024/01/14 10:17:28;;;;;;;8.88;3.20;;;;;;;3.72;100.00;100425.25;6290919;28;20178;-71
2024/01/14 10:20:30;;;;;;;13.77;3.05;;;;;;;3.85;100.00;100421.38;6293750;28;20392;-72
2024/01/14 10:23:31;;;;;;;8.73;2.88;;;;;;;3.75;100.00;100409.56;6291710;28;20040;-71
2024/01/14 10:26:33;;;;;;;8.85;3.22;;;;;;;3.77;100.00;100408.63;6290501;28;20056;-72
2024/01/14 10:29:36;;;;;;;8.38;3.40;;;;;;;3.76;100.00;100403.47;6299052;28;20044;-72
2024/01/14 10:32:38;;;;;;;9.55;3.17;;;;;;;3.83;100.00;100402.38;6299527;28;20051;-72
2024/01/14 10:35:39;;;;;;;6.88;3.03;;;;;;;3.67;100.00;100398.56;6296506;28;20051;-72
2024/01/14 10:38:41;;;;;;;5.95;3.17;;;;;;;3.76;100.00;100400.88;6293868;28;20052;-72
2024/01/14 10:41:42;;;;;;;9.07;3.10;;;;;;;3.77;100.00;100390.44;6279349;28;20455;-72
2024/01/14 10:44:45;;;;;;;6.30;2.65;;;;;;;3.71;100.00;100389.75;6299417;28;20045;-71
2024/01/14 10:47:48;;;;;;;6.32;2.38;;;;;;;3.56;100.00;100389.34;6298979;28;20055;-72
2024/01/14 10:50:54;;;;;;;5.40;2.13;;;;;;;3.55;100.00;100390.25;6293261;28;20044;-71
2024/01/14 10:54:03;;;;;;;7.65;2.88;;;;;;;3.68;100.00;100372.53;6289214;28;20055;-72
2024/01/14 10:57:12;;;;;;;6.57;2.70;;;;;;;3.67;100.00;100377.75;6299084;28;20178;-71
2024/01/14 11:00:15;;;;;;;7.15;3.08;;;;;;;3.59;100.00;100366.75;6299565;28;20044;-71
2024/01/14 11:03:17;;;;;;;6.90;3.67;;;;;;;3.52;100.00;100355.72;6292362;28;20051;-72
2024/01/14 11:06:21;;;;;;;14.77;4.47;;;;;;;3.48;100.00;100360.13;6293460;28;20045;-72
2024/01/14 11:09:22;;;;;;;16.35;5.80;;;;;;;3.30;100.00;100365.88;6294979;28;20055;-73
2024/01/14 11:12:29;;;;;;;10.35;4.80;;;;;;;3.28;100.00;100365.94;6289246;28;20044;-73
2024/01/14 11:15:39;;;;;;;12.35;5.63;;;;;;;3.25;100.00;100358.22;6298644;28;20190;-73
2024/01/14 11:18:48;;;;;;;16.30;6.90;;;;;;;3.18;100.00;100348.06;6294270;28;20729;-74
2024/01/14 11:22:01;;;;;;;8.35;4.57;;;;;;;3.12;100.00;100350.84;6295417;28;20128;-74
2024/01/14 11:25:03;;;;;;;12.48;5.15;;;;;;;3.15;100.00;100346.44;6298714;28;20052;-73
2024/01/14 11:28:07;;;;;;;13.15;5.18;;;;;;;3.13;100.00;100345.59;6302429;28;20132;-73
2024/01/14 11:31:09;;;;;;;11.88;6.25;;;;;;;3.06;100.00;100331.13;6298831;28;20049;-73
2024/01/14 11:34:49;;;;;;;11.63;5.95;;;;;;;3.00;100.00;100324.38;6284059;28;20404;-74
2024/01/14 11:37:50;;;;;;;13.30;6.18;;;;;;;3.08;100.00;100310.28;6287716;28;20049;-73
2024/01/14 11:40:55;;;;;;;15.75;5.68;;;;;;;3.18;100.00;100311.72;6287447;28;20052;-73
2024/01/14 11:44:04;;;;;;;11.43;5.07;;;;;;;3.15;100.00;100311.81;6291550;28;20044;-73
2024/01/14 11:47:08;;;;;;;14.68;5.45;;;;;;;3.05;100.00;100308.66;6297521;28;20064;-73
2024/01/14 11:50:10;;;;;;;11.77;5.05;;;;;;;2.91;100.00;100303.03;6286603;28;20139;-74
2024/01/14 11:53:12;;;;;;;15.60;5.95;;;;;;;3.00;100.00;100293.22;6296544;28;20345;-73
2024/01/14 11:56:28;;;;;;;11.93;5.22;;;;;;;3.04;100.00;100286.16;6292152;28;20129;-73
2024/01/14 11:59:31;;;;;;;13.02;6.18;;;;;;;3.07;100.00;100278.31;6289254;28;20131;-73
2024/01/14 12:02:33;;;;;;;17.23;6.28;;;;;;;3.05;100.00;100274.91;6290165;28;20193;-73
2024/01/14 12:05:35;;;;;;;20.13;5.95;;;;;;;2.93;100.00;100260.53;6295559;28;20056;-73
2024/01/14 12:08:37;;;;;;;11.85;5.28;;;;;;;3.03;100.00;100261.13;6293594;28;20162;-73
2024/01/14 12:11:39;;;;;;;15.40;6.10;;;;;;;3.17;100.00;100258.09;6293917;28;20107;-72
2024/01/14 12:14:40;;;;;;;18.35;5.88;;;;;;;3.22;100.00;100258.81;6299125;28;20049;-71
2024/01/14 12:17:53;;;;;;;19.83;5.65;;;;;;;3.18;100.00;100258.06;6302059;28;20048;-74
2024/01/14 12:21:05;;;;;;;16.45;6.00;;;;;;;3.09;100.00;100244.50;6302534;28;20049;-71
2024/01/14 12:24:07;;;;;;;22.25;6.43;;;;;;;3.21;100.00;100249.31;6302501;28;20051;-73
2024/01/14 12:27:10;;;;;;;17.33;6.93;;;;;;;3.17;100.00;100232.97;6297142;28;20067;-74
2024/01/14 12:30:12;;;;;;;17.90;6.55;;;;;;;3.27;100.00;100226.63;6288915;28;20071;-73
2024/01/14 12:33:14;;;;;;;27.20;8.68;;;;;;;3.33;100.00;100222.13;6298681;28;20348;-73
2024/01/14 12:36:16;;;;;;;17.30;6.65;;;;;;;3.28;100.00;100214.50;6296747;28;20167;-73
2024/01/14 12:39:17;;;;;;;24.10;6.88;;;;;;;3.29;100.00;100198.00;6295613;28;20052;-73
2024/01/14 12:42:19;;;;;;;17.67;6.78;;;;;;;3.29;100.00;100195.41;6297894;28;20504;-74
2024/01/14 12:45:21;;;;;;;14.63;6.57;;;;;;;3.22;100.00;100192.13;6291477;28;20041;-74
2024/01/14 12:48:25;;;;;;;15.73;6.50;;;;;;;3.30;100.00;100195.34;6297217;28;20456;-73
2024/01/14 12:51:26;;;;;;;16.30;6.47;;;;;;;3.33;100.00;100185.78;6296867;28;20049;-73
2024/01/14 12:54:28;;;;;;;15.68;6.22;;;;;;;3.37;100.00;100175.25;6296048;28;20041;-74
2024/01/14 12:57:29;;;;;;;18.23;6.97;;;;;;;3.23;100.00;100173.09;6289742;28;20348;-73
2024/01/14 13:00:31;;;;;;;18.70;6.57;;;;;;;3.18;100.00;100175.00;6295833;28;20067;-73
2024/01/14 13:03:36;;;;;;;14.52;6.47;;;;;;;3.18;100.00;100174.13;6290198;28;20446;-73
2024/01/14 13:06:37;;;;;;;14.25;5.80;;;;;;;3.13;100.00;100171.66;6290930;28;20053;-73
2024/01/14 13:09:38;;;;;;;13.57;6.00;;;;;;;3.17;100.00;100159.44;6289776;28;20044;-71
2024/01/14 13:12:40;;;;;;;18.02;6.55;;;;;;;3.13;100.00;100143.13;6298305;28;20048;-73
2024/01/14 13:15:41;;;;;;;20.98;7.63;;;;;;;3.12;100.00;100144.00;6296868;28;20052;-74
2024/01/14 13:18:44;;;;;;;17.05;6.85;;;;;;;3.20;100.00;100143.78;6295986;28;20388;-71
2024/01/14 13:21:45;;;;;;;25.95;7.20;;;;;;;3.03;100.00;100141.72;6300785;28;20048;-75
2024/01/14 13:24:46;;;;;;;12.07;5.88;;;;;;;2.99;100.00;100127.97;6300796;28;20052;-72
2024/01/14 13:27:48;;;;;;;13.43;5.90;;;;;;;3.00;100.00;100137.50;6300297;28;20072;-72
2024/01/14 13:30:49;;;;;;;13.00;5.70;;;;;;;2.98;100.00;100115.91;6290046;28;20052;-73
2024/01/14 13:33:52;;;;;;;19.02;6.20;;;;;;;3.10;100.00;100114.69;6297403;28;20460;-72
2024/01/14 13:36:54;;;;;;;15.80;5.82;;;;;;;3.16;100.00;100118.81;6294362;28;20059;-72
2024/01/14 13:39:55;;;;;;;13.98;5.68;;;;;;;2.96;100.00;100102.16;6298641;28;20049;-72
2024/01/14 13:42:57;;;;;;;15.25;5.60;;;;;;;3.13;100.00;100096.38;6298123;28;20078;-71
2024/01/14 13:45:58;;;;;;;12.68;5.63;;;;;;;3.05;100.00;100108.78;6292280;28;20056;-72
2024/01/14 13:49:01;;;;;;;12.82;5.40;;;;;;;3.12;100.00;100094.69;6285138;28;20433;-72
2024/01/14 13:52:03;;;;;;;13.40;5.22;;;;;;;3.02;100.00;100094.16;6298809;28;20330;-73
2024/01/14 13:55:05;;;;;;;14.57;5.85;;;;;;;3.16;100.00;100079.88;6296722;28;20137;-72
2024/01/14 13:58:07;;;;;;;9.07;5.13;;;;;;;3.23;100.00;100078.78;6294647;28;20119;-72
2024/01/14 14:01:08;;;;;;;14.73;5.47;;;;;;;2.95;100.00;100069.31;6299939;28;20058;-72
2024/01/14 14:04:11;;;;;;;11.52;5.55;;;;;;;2.97;100.00;100079.63;6295744;28;20175;-72